sensor_id;sensor_type;location;lat;lon;timestamp;P1;P2;P0
70922;PMS5003;58573;28.942;-13.688;2023-03-17T00:00:04;4;3;
70922;PMS5003;58573;28.942;-13.688;2023-03-17T00:02:29;2;2;
70922;PMS5003;58573;28.942;-13.688;2023-03-17T00:04:55;5;4;
70922;PMS5003;58573;28.942;-13.688;2023-03-17T00:07:20;5;4;
70922;PMS5003;58573;28.942;-13.688;2023-03-17T00:09:46;4;4;
70922;PMS5003;58573;28.942;-13.688;2023-03-17T00:12:11;2;2;
70922;PMS5003;58573;28.942;-13.688;2023-03-17T00:14:36;4;4;
70922;PMS5003;58573;28.942;-13.688;2023-03-17T00:17:02;5;3;
70922;PMS5003;58573;28.942;-13.688;2023-03-17T00:19:28;2;2;
70922;PMS5003;58573;28.942;-13.688;2023-03-17T00:21:53;3;3;
70922;PMS5003;58573;28.942;-13.688;2023-03-17T00:24:18;8;5;
70922;PMS5003;58573;28.942;-13.688;2023-03-17T00:26:44;3;3;
70922;PMS5003;58573;28.942;-13.688;2023-03-17T00:29:09;5;4;
70922;PMS5003;58573;28.942;-13.688;2023-03-17T00:31:35;5;4;
70922;PMS5003;58573;28.942;-13.688;2023-03-17T00:34:00;3;3;
70922;PMS5003;58573;28.942;-13.688;2023-03-17T00:36:26;3;3;
70922;PMS5003;58573;28.942;-13.688;2023-03-17T00:38:51;7;6;
70922;PMS5003;58573;28.942;-13.688;2023-03-17T00:41:16;9;7;
70922;PMS5003;58573;28.942;-13.688;2023-03-17T00:43:41;6;5;
70922;PMS5003;58573;28.942;-13.688;2023-03-17T00:46:09;8;5;
70922;PMS5003;58573;28.942;-13.688;2023-03-17T00:48:32;6;4;
70922;PMS5003;58573;28.942;-13.688;2023-03-17T00:50:58;6;5;
70922;PMS5003;58573;28.942;-13.688;2023-03-17T00:53:23;4;4;
70922;PMS5003;58573;28.942;-13.688;2023-03-17T00:55:49;5;5;
70922;PMS5003;58573;28.942;-13.688;2023-03-17T00:58:16;6;5;
70922;PMS5003;58573;28.942;-13.688;2023-03-17T01:00:40;4;4;
70922;PMS5003;58573;28.942;-13.688;2023-03-17T01:03:06;3;3;
70922;PMS5003;58573;28.942;-13.688;2023-03-17T01:05:31;3;3;
70922;PMS5003;58573;28.942;-13.688;2023-03-17T01:07:56;5;4;
70922;PMS5003;58573;28.942;-13.688;2023-03-17T01:10:23;6;4;
70922;PMS5003;58573;28.942;-13.688;2023-03-17T01:12:47;4;2;
70922;PMS5003;58573;28.942;-13.688;2023-03-17T01:15:13;6;4;
70922;PMS5003;58573;28.942;-13.688;2023-03-17T01:17:38;4;3;
70922;PMS5003;58573;28.942;-13.688;2023-03-17T01:20:04;3;3;
70922;PMS5003;58573;28.942;-13.688;2023-03-17T01:22:29;6;5;
70922;PMS5003;58573;28.942;-13.688;2023-03-17T01:24:54;4;3;
70922;PMS5003;58573;28.942;-13.688;2023-03-17T01:27:20;5;4;
70922;PMS5003;58573;28.942;-13.688;2023-03-17T01:29:46;5;5;
70922;PMS5003;58573;28.942;-13.688;2023-03-17T01:32:11;6;5;
70922;PMS5003;58573;28.942;-13.688;2023-03-17T01:34:36;5;4;
70922;PMS5003;58573;28.942;-13.688;2023-03-17T01:37:02;5;5;
70922;PMS5003;58573;28.942;-13.688;2023-03-17T01:39:27;7;7;
70922;PMS5003;58573;28.942;-13.688;2023-03-17T01:41:53;5;5;
70922;PMS5003;58573;28.942;-13.688;2023-03-17T01:44:18;5;3;
70922;PMS5003;58573;28.942;-13.688;2023-03-17T01:46:44;6;5;
70922;PMS5003;58573;28.942;-13.688;2023-03-17T01:49:12;5;5;
70922;PMS5003;58573;28.942;-13.688;2023-03-17T01:51:36;3;3;
70922;PMS5003;58573;28.942;-13.688;2023-03-17T01:54:01;6;4;
70922;PMS5003;58573;28.942;-13.688;2023-03-17T01:56:26;5;5;
70922;PMS5003;58573;28.942;-13.688;2023-03-17T01:58:51;5;4;
70922;PMS5003;58573;28.942;-13.688;2023-03-17T02:01:17;3;3;
70922;PMS5003;58573;28.942;-13.688;2023-03-17T02:03:42;4;4;
70922;PMS5003;58573;28.942;-13.688;2023-03-17T02:06:07;6;6;
70922;PMS5003;58573;28.942;-13.688;2023-03-17T02:08:33;6;4;
70922;PMS5003;58573;28.942;-13.688;2023-03-17T02:10:58;4;4;
70922;PMS5003;58573;28.942;-13.688;2023-03-17T02:13:24;4;4;
70922;PMS5003;58573;28.942;-13.688;2023-03-17T02:15:50;5;5;
70922;PMS5003;58573;28.942;-13.688;2023-03-17T02:18:15;4;4;
70922;PMS5003;58573;28.942;-13.688;2023-03-17T02:23:06;5;4;
70922;PMS5003;58573;28.942;-13.688;2023-03-17T02:25:32;6;5;
70922;PMS5003;58573;28.942;-13.688;2023-03-17T02:27:58;9;8;
70922;PMS5003;58573;28.942;-13.688;2023-03-17T02:30:22;7;5;
70922;PMS5003;58573;28.942;-13.688;2023-03-17T02:32:48;3;3;
70922;PMS5003;58573;28.942;-13.688;2023-03-17T02:35:13;6;5;
70922;PMS5003;58573;28.942;-13.688;2023-03-17T02:37:39;4;4;
70922;PMS5003;58573;28.942;-13.688;2023-03-17T02:40:05;6;6;
70922;PMS5003;58573;28.942;-13.688;2023-03-17T02:42:29;6;6;
70922;PMS5003;58573;28.942;-13.688;2023-03-17T02:44:55;4;4;
70922;PMS5003;58573;28.942;-13.688;2023-03-17T02:47:20;7;6;
70922;PMS5003;58573;28.942;-13.688;2023-03-17T02:49:46;9;8;
70922;PMS5003;58573;28.942;-13.688;2023-03-17T02:52:12;8;5;
70922;PMS5003;58573;28.942;-13.688;2023-03-17T02:54:37;5;5;
70922;PMS5003;58573;28.942;-13.688;2023-03-17T02:57:03;6;5;
70922;PMS5003;58573;28.942;-13.688;2023-03-17T02:59:28;4;4;
70922;PMS5003;58573;28.942;-13.688;2023-03-17T03:01:53;8;8;
70922;PMS5003;58573;28.942;-13.688;2023-03-17T03:04:18;5;4;
70922;PMS5003;58573;28.942;-13.688;2023-03-17T03:06:44;4;4;
70922;PMS5003;58573;28.942;-13.688;2023-03-17T03:09:10;5;5;
70922;PMS5003;58573;28.942;-13.688;2023-03-17T03:11:35;9;7;
70922;PMS5003;58573;28.942;-13.688;2023-03-17T03:14:00;12;10;
70922;PMS5003;58573;28.942;-13.688;2023-03-17T03:16:25;3;2;
70922;PMS5003;58573;28.942;-13.688;2023-03-17T03:18:51;5;4;
70922;PMS5003;58573;28.942;-13.688;2023-03-17T03:21:16;4;4;
70922;PMS5003;58573;28.942;-13.688;2023-03-17T03:23:42;4;4;
70922;PMS5003;58573;28.942;-13.688;2023-03-17T03:26:07;4;4;
70922;PMS5003;58573;28.942;-13.688;2023-03-17T03:28:33;4;4;
70922;PMS5003;58573;28.942;-13.688;2023-03-17T03:30:58;4;2;
70922;PMS5003;58573;28.942;-13.688;2023-03-17T03:33:24;6;5;
70922;PMS5003;58573;28.942;-13.688;2023-03-17T03:35:49;4;4;
70922;PMS5003;58573;28.942;-13.688;2023-03-17T03:38:15;4;4;
70922;PMS5003;58573;28.942;-13.688;2023-03-17T03:40:40;4;4;
70922;PMS5003;58573;28.942;-13.688;2023-03-17T03:43:06;8;7;
70922;PMS5003;58573;28.942;-13.688;2023-03-17T03:45:31;3;3;
70922;PMS5003;58573;28.942;-13.688;2023-03-17T03:47:56;6;4;
70922;PMS5003;58573;28.942;-13.688;2023-03-17T03:50:22;4;4;
70922;PMS5003;58573;28.942;-13.688;2023-03-17T03:52:47;5;5;
70922;PMS5003;58573;28.942;-13.688;2023-03-17T03:55:13;5;3;
70922;PMS5003;58573;28.942;-13.688;2023-03-17T03:57:38;4;4;
70922;PMS5003;58573;28.942;-13.688;2023-03-17T04:00:04;2;2;
70922;PMS5003;58573;28.942;-13.688;2023-03-17T04:02:29;2;2;
70922;PMS5003;58573;28.942;-13.688;2023-03-17T04:04:54;6;5;
70922;PMS5003;58573;28.942;-13.688;2023-03-17T04:07:20;5;5;
70922;PMS5003;58573;28.942;-13.688;2023-03-17T04:09:45;3;2;
70922;PMS5003;58573;28.942;-13.688;2023-03-17T04:12:10;2;2;
70922;PMS5003;58573;28.942;-13.688;2023-03-17T04:14:36;2;1;
70922;PMS5003;58573;28.942;-13.688;2023-03-17T04:17:01;3;3;
70922;PMS5003;58573;28.942;-13.688;2023-03-17T04:19:27;3;2;
70922;PMS5003;58573;28.942;-13.688;2023-03-17T04:21:52;3;3;
70922;PMS5003;58573;28.942;-13.688;2023-03-17T04:24:18;2;1;
70922;PMS5003;58573;28.942;-13.688;2023-03-17T04:26:43;2;2;
70922;PMS5003;58573;28.942;-13.688;2023-03-17T04:29:09;3;3;
70922;PMS5003;58573;28.942;-13.688;2023-03-17T04:31:34;3;2;
70922;PMS5003;58573;28.942;-13.688;2023-03-17T04:34:00;1;1;
70922;PMS5003;58573;28.942;-13.688;2023-03-17T04:36:25;3;3;
70922;PMS5003;58573;28.942;-13.688;2023-03-17T04:38:50;2;2;
70922;PMS5003;58573;28.942;-13.688;2023-03-17T04:41:16;2;2;
70922;PMS5003;58573;28.942;-13.688;2023-03-17T04:43:41;5;5;
70922;PMS5003;58573;28.942;-13.688;2023-03-17T04:46:07;3;2;
70922;PMS5003;58573;28.942;-13.688;2023-03-17T04:48:32;1;1;
70922;PMS5003;58573;28.942;-13.688;2023-03-17T04:50:57;2;2;
70922;PMS5003;58573;28.942;-13.688;2023-03-17T04:53:23;1;0;
70922;PMS5003;58573;28.942;-13.688;2023-03-17T04:55:48;3;3;
70922;PMS5003;58573;28.942;-13.688;2023-03-17T04:58:14;1;1;
70922;PMS5003;58573;28.942;-13.688;2023-03-17T05:00:39;4;2;
70922;PMS5003;58573;28.942;-13.688;2023-03-17T05:03:05;3;2;
70922;PMS5003;58573;28.942;-13.688;2023-03-17T05:05:30;3;3;
70922;PMS5003;58573;28.942;-13.688;2023-03-17T05:07:56;4;4;
70922;PMS5003;58573;28.942;-13.688;2023-03-17T05:10:21;3;2;
70922;PMS5003;58573;28.942;-13.688;2023-03-17T05:12:47;1;1;
70922;PMS5003;58573;28.942;-13.688;2023-03-17T05:15:12;2;2;
70922;PMS5003;58573;28.942;-13.688;2023-03-17T05:17:37;0;0;
70922;PMS5003;58573;28.942;-13.688;2023-03-17T05:20:03;1;1;
70922;PMS5003;58573;28.942;-13.688;2023-03-17T05:22:28;1;1;
70922;PMS5003;58573;28.942;-13.688;2023-03-17T05:24:54;1;1;
70922;PMS5003;58573;28.942;-13.688;2023-03-17T05:27:19;1;1;
70922;PMS5003;58573;28.942;-13.688;2023-03-17T05:29:45;4;4;
70922;PMS5003;58573;28.942;-13.688;2023-03-17T05:32:10;1;0;
70922;PMS5003;58573;28.942;-13.688;2023-03-17T05:34:36;1;1;
70922;PMS5003;58573;28.942;-13.688;2023-03-17T05:37:01;0;0;
70922;PMS5003;58573;28.942;-13.688;2023-03-17T05:39:27;2;2;
70922;PMS5003;58573;28.942;-13.688;2023-03-17T05:41:52;1;1;
70922;PMS5003;58573;28.942;-13.688;2023-03-17T05:44:18;1;1;
70922;PMS5003;58573;28.942;-13.688;2023-03-17T05:46:43;1;0;
70922;PMS5003;58573;28.942;-13.688;2023-03-17T05:49:09;1;1;
70922;PMS5003;58573;28.942;-13.688;2023-03-17T05:51:34;1;1;
70922;PMS5003;58573;28.942;-13.688;2023-03-17T05:54:00;1;1;
70922;PMS5003;58573;28.942;-13.688;2023-03-17T05:56:25;2;2;
70922;PMS5003;58573;28.942;-13.688;2023-03-17T05:58:51;0;0;
70922;PMS5003;58573;28.942;-13.688;2023-03-17T06:01:16;2;1;
70922;PMS5003;58573;28.942;-13.688;2023-03-17T06:03:42;2;2;
70922;PMS5003;58573;28.942;-13.688;2023-03-17T06:06:07;1;0;
70922;PMS5003;58573;28.942;-13.688;2023-03-17T06:08:33;2;1;
70922;PMS5003;58573;28.942;-13.688;2023-03-17T06:10:58;2;2;
70922;PMS5003;58573;28.942;-13.688;2023-03-17T06:13:24;1;1;
70922;PMS5003;58573;28.942;-13.688;2023-03-17T06:15:49;1;1;
70922;PMS5003;58573;28.942;-13.688;2023-03-17T06:18:15;1;1;
70922;PMS5003;58573;28.942;-13.688;2023-03-17T06:20:40;0;0;
70922;PMS5003;58573;28.942;-13.688;2023-03-17T06:23:06;1;0;
70922;PMS5003;58573;28.942;-13.688;2023-03-17T06:25:32;0;0;
70922;PMS5003;58573;28.942;-13.688;2023-03-17T06:27:57;0;0;
70922;PMS5003;58573;28.942;-13.688;2023-03-17T06:30:22;1;1;
70922;PMS5003;58573;28.942;-13.688;2023-03-17T06:32:48;0;0;
70922;PMS5003;58573;28.942;-13.688;2023-03-17T06:35:13;0;0;
70922;PMS5003;58573;28.942;-13.688;2023-03-17T06:37:39;0;0;
70922;PMS5003;58573;28.942;-13.688;2023-03-17T06:40:05;0;0;
70922;PMS5003;58573;28.942;-13.688;2023-03-17T06:42:30;1;1;
70922;PMS5003;58573;28.942;-13.688;2023-03-17T06:44:55;2;2;
70922;PMS5003;58573;28.942;-13.688;2023-03-17T06:47:21;0;0;
70922;PMS5003;58573;28.942;-13.688;2023-03-17T06:49:46;1;1;
70922;PMS5003;58573;28.942;-13.688;2023-03-17T06:52:12;1;1;
70922;PMS5003;58573;28.942;-13.688;2023-03-17T06:54:37;0;0;
70922;PMS5003;58573;28.942;-13.688;2023-03-17T06:57:03;0;0;
70922;PMS5003;58573;28.942;-13.688;2023-03-17T06:59:28;1;1;
70922;PMS5003;58573;28.942;-13.688;2023-03-17T07:01:54;0;0;
70922;PMS5003;58573;28.942;-13.688;2023-03-17T07:04:19;0;0;
70922;PMS5003;58573;28.942;-13.688;2023-03-17T07:06:45;0;0;
70922;PMS5003;58573;28.942;-13.688;2023-03-17T07:09:10;0;0;
70922;PMS5003;58573;28.942;-13.688;2023-03-17T07:11:36;0;0;
70922;PMS5003;58573;28.942;-13.688;2023-03-17T07:14:01;0;0;
70922;PMS5003;58573;28.942;-13.688;2023-03-17T07:16:27;0;0;
70922;PMS5003;58573;28.942;-13.688;2023-03-17T07:18:53;1;0;
70922;PMS5003;58573;28.942;-13.688;2023-03-17T07:21:18;1;1;
70922;PMS5003;58573;28.942;-13.688;2023-03-17T07:23:44;1;1;
70922;PMS5003;58573;28.942;-13.688;2023-03-17T07:26:09;0;0;
70922;PMS5003;58573;28.942;-13.688;2023-03-17T07:28:35;0;0;
70922;PMS5003;58573;28.942;-13.688;2023-03-17T07:31:00;0;0;
70922;PMS5003;58573;28.942;-13.688;2023-03-17T07:33:26;0;0;
70922;PMS5003;58573;28.942;-13.688;2023-03-17T07:35:51;0;0;
70922;PMS5003;58573;28.942;-13.688;2023-03-17T07:38:17;1;0;
70922;PMS5003;58573;28.942;-13.688;2023-03-17T07:40:42;0;0;
70922;PMS5003;58573;28.942;-13.688;2023-03-17T07:43:08;0;0;
70922;PMS5003;58573;28.942;-13.688;2023-03-17T07:45:33;0;0;
70922;PMS5003;58573;28.942;-13.688;2023-03-17T07:47:58;2;1;
70922;PMS5003;58573;28.942;-13.688;2023-03-17T07:50:24;0;0;
70922;PMS5003;58573;28.942;-13.688;2023-03-17T07:52:49;1;0;
70922;PMS5003;58573;28.942;-13.688;2023-03-17T07:55:15;1;0;
70922;PMS5003;58573;28.942;-13.688;2023-03-17T07:57:40;1;0;
70922;PMS5003;58573;28.942;-13.688;2023-03-17T08:00:07;0;0;
70922;PMS5003;58573;28.942;-13.688;2023-03-17T08:02:32;0;0;
70922;PMS5003;58573;28.942;-13.688;2023-03-17T08:04:57;0;0;
70922;PMS5003;58573;28.942;-13.688;2023-03-17T08:07:23;2;1;
70922;PMS5003;58573;28.942;-13.688;2023-03-17T08:09:48;2;2;
70922;PMS5003;58573;28.942;-13.688;2023-03-17T08:12:14;2;0;
70922;PMS5003;58573;28.942;-13.688;2023-03-17T08:14:39;3;2;
70922;PMS5003;58573;28.942;-13.688;2023-03-17T08:17:05;2;2;
70922;PMS5003;58573;28.942;-13.688;2023-03-17T08:19:30;3;3;
70922;PMS5003;58573;28.942;-13.688;2023-03-17T08:21:56;6;5;
70922;PMS5003;58573;28.942;-13.688;2023-03-17T08:24:21;4;3;
70922;PMS5003;58573;28.942;-13.688;2023-03-17T08:26:47;2;2;
70922;PMS5003;58573;28.942;-13.688;2023-03-17T08:29:12;1;1;
70922;PMS5003;58573;28.942;-13.688;2023-03-17T08:31:38;2;1;
70922;PMS5003;58573;28.942;-13.688;2023-03-17T08:34:03;1;1;
70922;PMS5003;58573;28.942;-13.688;2023-03-17T08:36:29;1;1;
70922;PMS5003;58573;28.942;-13.688;2023-03-17T08:38:54;1;1;
70922;PMS5003;58573;28.942;-13.688;2023-03-17T08:41:21;2;0;
70922;PMS5003;58573;28.942;-13.688;2023-03-17T08:43:45;2;1;
70922;PMS5003;58573;28.942;-13.688;2023-03-17T08:46:12;0;0;
70922;PMS5003;58573;28.942;-13.688;2023-03-17T08:48:36;2;1;
70922;PMS5003;58573;28.942;-13.688;2023-03-17T08:51:02;0;0;
70922;PMS5003;58573;28.942;-13.688;2023-03-17T08:53:27;2;2;
70922;PMS5003;58573;28.942;-13.688;2023-03-17T08:55:53;0;0;
70922;PMS5003;58573;28.942;-13.688;2023-03-17T08:58:18;0;0;
70922;PMS5003;58573;28.942;-13.688;2023-03-17T09:00:43;2;1;
70922;PMS5003;58573;28.942;-13.688;2023-03-17T09:03:09;2;0;
70922;PMS5003;58573;28.942;-13.688;2023-03-17T09:05:34;2;1;
70922;PMS5003;58573;28.942;-13.688;2023-03-17T09:08:00;2;2;
70922;PMS5003;58573;28.942;-13.688;2023-03-17T09:10:25;2;1;
70922;PMS5003;58573;28.942;-13.688;2023-03-17T09:12:50;3;3;
70922;PMS5003;58573;28.942;-13.688;2023-03-17T09:15:16;2;2;
70922;PMS5003;58573;28.942;-13.688;2023-03-17T09:17:41;0;0;
70922;PMS5003;58573;28.942;-13.688;2023-03-17T09:20:07;1;1;
70922;PMS5003;58573;28.942;-13.688;2023-03-17T09:22:32;3;2;
70922;PMS5003;58573;28.942;-13.688;2023-03-17T09:24:57;5;4;
70922;PMS5003;58573;28.942;-13.688;2023-03-17T09:27:23;0;0;
70922;PMS5003;58573;28.942;-13.688;2023-03-17T09:29:48;2;2;
70922;PMS5003;58573;28.942;-13.688;2023-03-17T09:32:14;0;0;
70922;PMS5003;58573;28.942;-13.688;2023-03-17T09:34:39;3;2;
70922;PMS5003;58573;28.942;-13.688;2023-03-17T09:37:05;3;1;
70922;PMS5003;58573;28.942;-13.688;2023-03-17T09:39:30;1;0;
70922;PMS5003;58573;28.942;-13.688;2023-03-17T09:41:58;1;0;
70922;PMS5003;58573;28.942;-13.688;2023-03-17T09:44:24;3;2;
70922;PMS5003;58573;28.942;-13.688;2023-03-17T09:46:48;1;0;
70922;PMS5003;58573;28.942;-13.688;2023-03-17T09:49:12;1;1;
70922;PMS5003;58573;28.942;-13.688;2023-03-17T09:51:37;1;1;
70922;PMS5003;58573;28.942;-13.688;2023-03-17T09:54:03;2;1;
70922;PMS5003;58573;28.942;-13.688;2023-03-17T09:56:29;3;1;
70922;PMS5003;58573;28.942;-13.688;2023-03-17T09:58:55;3;3;
70922;PMS5003;58573;28.942;-13.688;2023-03-17T10:01:19;1;1;
70922;PMS5003;58573;28.942;-13.688;2023-03-17T10:03:45;2;2;
70922;PMS5003;58573;28.942;-13.688;2023-03-17T10:06:14;4;1;
70922;PMS5003;58573;28.942;-13.688;2023-03-17T10:08:36;3;1;
70922;PMS5003;58573;28.942;-13.688;2023-03-17T10:11:03;2;2;
70922;PMS5003;58573;28.942;-13.688;2023-03-17T10:13:29;3;3;
70922;PMS5003;58573;28.942;-13.688;2023-03-17T10:15:53;3;2;
70922;PMS5003;58573;28.942;-13.688;2023-03-17T10:18:17;2;2;
70922;PMS5003;58573;28.942;-13.688;2023-03-17T10:20:45;2;2;
70922;PMS5003;58573;28.942;-13.688;2023-03-17T10:23:08;5;3;
70922;PMS5003;58573;28.942;-13.688;2023-03-17T10:25:34;4;3;
70922;PMS5003;58573;28.942;-13.688;2023-03-17T10:28:00;6;4;
70922;PMS5003;58573;28.942;-13.688;2023-03-17T10:30:24;3;3;
70922;PMS5003;58573;28.942;-13.688;2023-03-17T10:32:49;5;3;
70922;PMS5003;58573;28.942;-13.688;2023-03-17T10:35:14;7;5;
70922;PMS5003;58573;28.942;-13.688;2023-03-17T10:37:40;3;2;
70922;PMS5003;58573;28.942;-13.688;2023-03-17T10:40:07;2;2;
70922;PMS5003;58573;28.942;-13.688;2023-03-17T10:42:31;2;2;
70922;PMS5003;58573;28.942;-13.688;2023-03-17T10:44:57;3;2;
70922;PMS5003;58573;28.942;-13.688;2023-03-17T10:47:23;3;3;
70922;PMS5003;58573;28.942;-13.688;2023-03-17T10:49:47;2;1;
70922;PMS5003;58573;28.942;-13.688;2023-03-17T10:52:16;1;1;
70922;PMS5003;58573;28.942;-13.688;2023-03-17T10:54:38;0;0;
70922;PMS5003;58573;28.942;-13.688;2023-03-17T10:57:05;2;1;
70922;PMS5003;58573;28.942;-13.688;2023-03-17T10:59:29;2;2;
70922;PMS5003;58573;28.942;-13.688;2023-03-17T11:01:55;5;4;
70922;PMS5003;58573;28.942;-13.688;2023-03-17T11:06:44;4;4;
70922;PMS5003;58573;28.942;-13.688;2023-03-17T11:09:14;4;2;
70922;PMS5003;58573;28.942;-13.688;2023-03-17T11:14:01;3;3;
70922;PMS5003;58573;28.942;-13.688;2023-03-17T11:16:26;2;2;
70922;PMS5003;58573;28.942;-13.688;2023-03-17T11:18:51;2;1;
70922;PMS5003;58573;28.942;-13.688;2023-03-17T11:21:17;2;1;
70922;PMS5003;58573;28.942;-13.688;2023-03-17T11:26:10;5;3;
70922;PMS5003;58573;28.942;-13.688;2023-03-17T11:28:34;2;1;
70922;PMS5003;58573;28.942;-13.688;2023-03-17T11:30:59;1;1;
70922;PMS5003;58573;28.942;-13.688;2023-03-17T11:33:31;5;4;
70922;PMS5003;58573;28.942;-13.688;2023-03-17T11:35:49;3;3;
70922;PMS5003;58573;28.942;-13.688;2023-03-17T11:38:20;2;1;
70922;PMS5003;58573;28.942;-13.688;2023-03-17T11:40:41;5;2;
70922;PMS5003;58573;28.942;-13.688;2023-03-17T11:43:08;4;2;
70922;PMS5003;58573;28.942;-13.688;2023-03-17T11:45:40;2;1;
70922;PMS5003;58573;28.942;-13.688;2023-03-17T11:47:59;4;1;
70922;PMS5003;58573;28.942;-13.688;2023-03-17T11:50:23;0;0;
70922;PMS5003;58573;28.942;-13.688;2023-03-17T11:52:48;3;2;
70922;PMS5003;58573;28.942;-13.688;2023-03-17T11:55:12;4;2;
70922;PMS5003;58573;28.942;-13.688;2023-03-17T11:57:38;3;3;
70922;PMS5003;58573;28.942;-13.688;2023-03-17T12:00:03;1;1;
70922;PMS5003;58573;28.942;-13.688;2023-03-17T12:02:28;1;0;
70922;PMS5003;58573;28.942;-13.688;2023-03-17T12:04:53;0;0;
70922;PMS5003;58573;28.942;-13.688;2023-03-17T12:07:18;1;1;
70922;PMS5003;58573;28.942;-13.688;2023-03-17T12:09:43;2;2;
70922;PMS5003;58573;28.942;-13.688;2023-03-17T12:12:08;1;1;
70922;PMS5003;58573;28.942;-13.688;2023-03-17T12:14:34;2;1;
70922;PMS5003;58573;28.942;-13.688;2023-03-17T12:17:01;4;3;
70922;PMS5003;58573;28.942;-13.688;2023-03-17T12:19:24;3;3;
70922;PMS5003;58573;28.942;-13.688;2023-03-17T12:21:50;2;1;
70922;PMS5003;58573;28.942;-13.688;2023-03-17T12:24:16;4;3;
70922;PMS5003;58573;28.942;-13.688;2023-03-17T12:26:42;2;1;
70922;PMS5003;58573;28.942;-13.688;2023-03-17T12:29:08;1;1;
70922;PMS5003;58573;28.942;-13.688;2023-03-17T12:31:32;4;3;
70922;PMS5003;58573;28.942;-13.688;2023-03-17T12:33:58;3;3;
70922;PMS5003;58573;28.942;-13.688;2023-03-17T12:36:23;0;0;
70922;PMS5003;58573;28.942;-13.688;2023-03-17T12:38:49;3;1;
70922;PMS5003;58573;28.942;-13.688;2023-03-17T12:43:39;3;2;
70922;PMS5003;58573;28.942;-13.688;2023-03-17T12:48:34;2;2;
70922;PMS5003;58573;28.942;-13.688;2023-03-17T12:51:05;2;2;
70922;PMS5003;58573;28.942;-13.688;2023-03-17T12:53:24;2;2;
70922;PMS5003;58573;28.942;-13.688;2023-03-17T12:55:46;5;5;
70922;PMS5003;58573;28.942;-13.688;2023-03-17T12:58:19;3;1;
70922;PMS5003;58573;28.942;-13.688;2023-03-17T13:03:08;2;2;
70922;PMS5003;58573;28.942;-13.688;2023-03-17T13:05:29;2;1;
70922;PMS5003;58573;28.942;-13.688;2023-03-17T13:07:54;2;2;
70922;PMS5003;58573;28.942;-13.688;2023-03-17T13:17:35;3;3;
70922;PMS5003;58573;28.942;-13.688;2023-03-17T13:22:33;2;1;
70922;PMS5003;58573;28.942;-13.688;2023-03-17T13:24:52;2;1;
70922;PMS5003;58573;28.942;-13.688;2023-03-17T13:29:44;2;2;
70922;PMS5003;58573;28.942;-13.688;2023-03-17T13:37:00;1;1;
70922;PMS5003;58573;28.942;-13.688;2023-03-17T13:39:28;1;1;
70922;PMS5003;58573;28.942;-13.688;2023-03-17T13:41:53;1;1;
70922;PMS5003;58573;28.942;-13.688;2023-03-17T13:44:23;2;1;
70922;PMS5003;58573;28.942;-13.688;2023-03-17T13:46:41;0;0;
70922;PMS5003;58573;28.942;-13.688;2023-03-17T13:51:31;2;1;
70922;PMS5003;58573;28.942;-13.688;2023-03-17T13:53:58;2;1;
70922;PMS5003;58573;28.942;-13.688;2023-03-17T13:56:23;2;1;
70922;PMS5003;58573;28.942;-13.688;2023-03-17T13:58:56;3;2;
70922;PMS5003;58573;28.942;-13.688;2023-03-17T14:01:12;3;2;
70922;PMS5003;58573;28.942;-13.688;2023-03-17T14:03:39;2;1;
70922;PMS5003;58573;28.942;-13.688;2023-03-17T14:06:04;8;4;
70922;PMS5003;58573;28.942;-13.688;2023-03-17T14:08:29;1;1;
70922;PMS5003;58573;28.942;-13.688;2023-03-17T14:10:54;0;0;
70922;PMS5003;58573;28.942;-13.688;2023-03-17T14:13:20;1;1;
70922;PMS5003;58573;28.942;-13.688;2023-03-17T14:15:45;1;1;
70922;PMS5003;58573;28.942;-13.688;2023-03-17T14:18:14;2;2;
70922;PMS5003;58573;28.942;-13.688;2023-03-17T14:20:35;2;2;
70922;PMS5003;58573;28.942;-13.688;2023-03-17T14:23:00;2;1;
70922;PMS5003;58573;28.942;-13.688;2023-03-17T14:25:26;0;0;
70922;PMS5003;58573;28.942;-13.688;2023-03-17T14:27:51;3;2;
70922;PMS5003;58573;28.942;-13.688;2023-03-17T14:30:17;0;0;
70922;PMS5003;58573;28.942;-13.688;2023-03-17T14:32:44;3;2;
70922;PMS5003;58573;28.942;-13.688;2023-03-17T14:35:11;1;0;
70922;PMS5003;58573;28.942;-13.688;2023-03-17T14:37:32;0;0;
70922;PMS5003;58573;28.942;-13.688;2023-03-17T14:39:57;2;1;
70922;PMS5003;58573;28.942;-13.688;2023-03-17T14:42:25;1;1;
70922;PMS5003;58573;28.942;-13.688;2023-03-17T14:44:48;2;2;
70922;PMS5003;58573;28.942;-13.688;2023-03-17T14:47:15;1;1;
70922;PMS5003;58573;28.942;-13.688;2023-03-17T14:49:39;1;1;
70922;PMS5003;58573;28.942;-13.688;2023-03-17T14:52:04;2;2;
70922;PMS5003;58573;28.942;-13.688;2023-03-17T14:54:30;3;2;
70922;PMS5003;58573;28.942;-13.688;2023-03-17T14:56:55;1;0;
70922;PMS5003;58573;28.942;-13.688;2023-03-17T14:59:21;1;1;
70922;PMS5003;58573;28.942;-13.688;2023-03-17T15:01:45;2;2;
70922;PMS5003;58573;28.942;-13.688;2023-03-17T15:04:11;2;1;
70922;PMS5003;58573;28.942;-13.688;2023-03-17T15:06:44;2;2;
70922;PMS5003;58573;28.942;-13.688;2023-03-17T15:09:01;1;1;
70922;PMS5003;58573;28.942;-13.688;2023-03-17T15:11:27;3;2;
70922;PMS5003;58573;28.942;-13.688;2023-03-17T15:13:52;1;0;
70922;PMS5003;58573;28.942;-13.688;2023-03-17T15:16:19;2;1;
70922;PMS5003;58573;28.942;-13.688;2023-03-17T15:18:42;0;0;
70922;PMS5003;58573;28.942;-13.688;2023-03-17T15:23:35;2;0;
70922;PMS5003;58573;28.942;-13.688;2023-03-17T15:25:58;2;2;
70922;PMS5003;58573;28.942;-13.688;2023-03-17T15:28:25;0;0;
70922;PMS5003;58573;28.942;-13.688;2023-03-17T15:30:49;1;1;
70922;PMS5003;58573;28.942;-13.688;2023-03-17T15:33:16;3;3;
70922;PMS5003;58573;28.942;-13.688;2023-03-17T15:35:39;4;2;
70922;PMS5003;58573;28.942;-13.688;2023-03-17T15:38:07;3;3;
70922;PMS5003;58573;28.942;-13.688;2023-03-17T15:40:31;4;4;
70922;PMS5003;58573;28.942;-13.688;2023-03-17T15:42:56;1;1;
70922;PMS5003;58573;28.942;-13.688;2023-03-17T15:45:22;2;0;
70922;PMS5003;58573;28.942;-13.688;2023-03-17T15:47:47;1;0;
70922;PMS5003;58573;28.942;-13.688;2023-03-17T15:50:14;0;0;
70922;PMS5003;58573;28.942;-13.688;2023-03-17T15:52:38;3;1;
70922;PMS5003;58573;28.942;-13.688;2023-03-17T15:55:05;0;0;
70922;PMS5003;58573;28.942;-13.688;2023-03-17T15:57:29;1;1;
70922;PMS5003;58573;28.942;-13.688;2023-03-17T15:59:54;1;0;
70922;PMS5003;58573;28.942;-13.688;2023-03-17T16:02:24;1;1;
70922;PMS5003;58573;28.942;-13.688;2023-03-17T16:04:44;2;2;
70922;PMS5003;58573;28.942;-13.688;2023-03-17T16:07:10;3;2;
70922;PMS5003;58573;28.942;-13.688;2023-03-17T16:09:35;1;1;
70922;PMS5003;58573;28.942;-13.688;2023-03-17T16:12:00;0;0;
70922;PMS5003;58573;28.942;-13.688;2023-03-17T16:14:26;1;1;
70922;PMS5003;58573;28.942;-13.688;2023-03-17T16:16:51;3;3;
70922;PMS5003;58573;28.942;-13.688;2023-03-17T16:19:17;0;0;
70922;PMS5003;58573;28.942;-13.688;2023-03-17T16:21:42;2;1;
70922;PMS5003;58573;28.942;-13.688;2023-03-17T16:24:09;0;0;
70922;PMS5003;58573;28.942;-13.688;2023-03-17T16:26:32;1;1;
70922;PMS5003;58573;28.942;-13.688;2023-03-17T16:28:58;1;1;
70922;PMS5003;58573;28.942;-13.688;2023-03-17T16:31:24;4;1;
70922;PMS5003;58573;28.942;-13.688;2023-03-17T16:33:49;2;1;
70922;PMS5003;58573;28.942;-13.688;2023-03-17T16:36:14;1;1;
70922;PMS5003;58573;28.942;-13.688;2023-03-17T16:38:40;1;1;
70922;PMS5003;58573;28.942;-13.688;2023-03-17T16:41:06;2;2;
70922;PMS5003;58573;28.942;-13.688;2023-03-17T16:43:32;7;6;